• Join FlightAware (Why Join?)
  • Login
  • US Flag GB Flag 
06:12 EDT


 

Airport Tracker/Info


-or-


 

Live Flight TrackerFlight Track Log ✈ ASQ4252 ✈ 17-Jun-2013 ✈ KIAH - KBNA

Flight Track Log - Related Links

Times and Time Zones

All times are in EDT time to prevent confusion due to time zone crossing. See the ASQ4252 flight status page for this flight to view local times or setup timezone preferences in your user account.

Time Position Orientation Groundspeed Altitude Reporting Facility
EDT Latitude Longitude Course Direction KTS MPH feet Rate Location/Type
14:16 29.9642 -95.3481 27° Northeast 149 171 600  Level Houston Center
14:17 29.9353 -95.3517 186° South 191 220 1,600 1,380 Climbing Houston Center
14:17 29.9392 -95.3831 278° West 254 292 2,300 1,560 Climbing Houston Center
14:18 29.9742 -95.3878 353° North 275 316 3,200 1,560 Climbing Houston Center
14:18 30.0094 -95.3825 North 260 299 4,000 1,140 Climbing Houston Center
14:19 30.2942 -95.2040 14° North  Level FlightAware Approximate
14:19 30.0489 -95.3789 North 273 314 4,400  Level Houston Center
14:19 30.0806 -95.3606 27° Northeast 265 305 4,900 720 Climbing Houston Center
14:20 30.3998 -95.1668 23° Northeast  Level FlightAware Approximate
14:20 30.1444 -95.3133 33° Northeast 271 312 5,600  Level Houston Center
14:21 30.4992 -95.1105 27° Northeast  Level FlightAware Approximate
14:21 30.2239 -95.2617 29° Northeast 272 313 9,100  Level Houston Center
14:22 30.2894 -95.2217 28° Northeast 266 306 11,700 1,920 Climbing Houston Center
14:23 30.3653 -95.1939 18° North 284 327 13,100 1,200 Climbing Houston Center
14:24 30.4506 -95.1614 18° North 326 375 14,200 1,200 Climbing Houston Center
14:26 30.5581 -95.0944 28° Northeast 363 418 15,700 1,440 Climbing Houston Center
14:27 30.6506 -95.0372 28° Northeast 373 429 17,200 1,440 Climbing Houston Center
14:28 30.7436 -94.9800 28° Northeast 377 434 18,700 1,440 Climbing Houston Center
14:29 30.8353 -94.9222 28° Northeast 375 432 20,200 1,080 Climbing Houston Center
14:30 30.9275 -94.8644 28° Northeast 377 434 21,000 360 Climbing Houston Center
14:31 31.0294 -94.8008 28° Northeast 409 471 21,000 300 Level Houston Center
14:33 31.2561 -94.6503 30° Northeast 427 491 22,100 660 Climbing Fort Worth Center
14:34 31.3611 -94.5817 29° Northeast 427 491 23,100 1,020 Climbing Fort Worth Center
14:35 31.4536 -94.5178 31° Northeast 432 497 24,200 1,080 Climbing Fort Worth Center
14:36 31.5542 -94.4464 31° Northeast 426 490 25,300 1,080 Climbing Fort Worth Center
14:37 31.6528 -94.3800 30° Northeast 421 484 26,400 1,080 Climbing Fort Worth Center
14:38 31.7536 -94.3106 30° Northeast 409 471 27,500 1,080 Climbing Fort Worth Center
14:39 31.8500 -94.2414 31° Northeast 409 471 28,600 1,080 Climbing Fort Worth Center
14:40 31.9483 -94.1744 30° Northeast 409 471 29,700 1,140 Climbing Fort Worth Center
14:41 32.0447 -94.1047 32° Northeast 404 465 30,900 1,200 Climbing Fort Worth Center
14:42 32.1411 -94.0375 31° Northeast 399 459 32,200 1,200 Climbing Fort Worth Center
14:43 32.2350 -93.9653 33° Northeast 399 459 33,400 1,200 Climbing Fort Worth Center
14:44 32.3250 -93.9003 31° Northeast 394 453 34,600 780 Climbing Fort Worth Center
14:45 32.4214 -93.8350 30° Northeast 389 448 35,000 180 Climbing Fort Worth Center
14:46 32.5217 -93.7622 31° Northeast 401 461 35,000  Level Fort Worth Center
14:47 32.6239 -93.6864 32° Northeast 412 474 35,000 480 Level Fort Worth Center
14:48 32.7300 -93.6106 31° Northeast 428 493 36,000 960 Climbing Fort Worth Center
14:49 32.8300 -93.5319 33° Northeast 428 493 37,000 480 Climbing Fort Worth Center
14:50 32.9339 -93.4533 32° Northeast 428 493 37,000  Level Fort Worth Center
14:51 33.0378 -93.3769 32° Northeast 433 498 37,000  Level Fort Worth Center
14:52 33.1458 -93.2975 32° Northeast 440 506 37,000  Level Fort Worth Center
14:53 33.2539 -93.2156 32° Northeast 445 512 37,000  Level Fort Worth Center
14:54 33.3636 -93.1308 33° Northeast 450 518 37,000  Level Fort Worth Center
14:54 33.4208 -93.0900 31° Northeast 458 527 37,000  Level Memphis Center
14:55 33.5269 -93.0086 33° Northeast 468 539 37,000  Level Memphis Center
14:56 33.6372 -92.9269 32° Northeast 461 531 37,000  Level Memphis Center
14:57 33.7453 -92.8428 33° Northeast 461 531 37,000  Level Memphis Center
14:58 33.8533 -92.7583 33° Northeast 461 531 37,000  Level Memphis Center
14:59 33.9633 -92.6764 32° Northeast 461 531 37,000  Level Memphis Center
15:00 34.0778 -92.5867 33° Northeast 461 531 37,000  Level Memphis Center
15:01 34.1836 -92.4989 34° Northeast 461 531 37,000  Level Memphis Center
15:02 34.2936 -92.4136 33° Northeast 461 531 37,000  Level Memphis Center
15:03 34.4014 -92.3281 33° Northeast 461 531 37,000  Level Memphis Center
15:04 34.5092 -92.2425 33° Northeast 461 531 37,000  Level Memphis Center
15:05 34.6167 -92.1589 33° Northeast 461 531 37,000  Level Memphis Center
15:06 34.7244 -92.0753 33° Northeast 461 531 37,000  Level Memphis Center
15:07 34.8319 -91.9889 33° Northeast 461 531 37,000  Level Memphis Center
15:08 34.9372 -91.9047 33° Northeast 461 531 37,000  Level Memphis Center
15:09 35.0489 -91.8156 33° Northeast 461 531 37,000  Level Memphis Center
15:10 35.1583 -91.7286 33° Northeast 461 531 37,000  Level Memphis Center
15:11 35.2700 -91.6389 33° Northeast 461 531 37,000  Level Memphis Center
15:12 35.3792 -91.5514 33° Northeast 466 536 37,000  Level Memphis Center
15:13 35.4906 -91.4636 33° Northeast 466 536 37,000  Level Memphis Center
15:14 35.5850 -91.3858 34° Northeast 461 531 37,000  Level Memphis Center
15:15 35.7069 -91.2875 33° Northeast 471 542 37,000  Level Memphis Center
15:16 35.8117 -91.1967 35° Northeast 466 536 37,000  Level Memphis Center
15:17 35.9208 -91.1081 33° Northeast 466 536 37,000  Level Memphis Center
15:18 36.0256 -91.0217 34° Northeast 458 527 37,000  Level Memphis Center
15:19 36.1011 -90.8964 53° Northeast 445 512 37,000  Level Memphis Center
15:20 36.1100 -90.7422 86° East 415 478 37,000  Level Memphis Center
15:21 36.1167 -90.5856 87° East 431 496 37,000  Level Memphis Center
15:22 36.1169 -90.4264 90° East 443 510 37,000  Level Memphis Center
15:23 36.1211 -90.2619 88° East 465 535 37,000  Level Memphis Center
15:24 36.1228 -90.0950 89° East 471 542 37,000 -480 Level Memphis Center
15:25 36.1244 -89.9253 89° East 484 557 36,100 -1,020 Descending Memphis Center
15:26 36.1114 -89.7636 96° East 484 557 35,000 -600 Descending Memphis Center
15:27 36.0894 -89.6019 99° East 474 545 35,000  Level Memphis Center
15:28 36.0697 -89.4403 99° East 474 545 35,000  Level Memphis Center
15:29 36.0453 -89.2711 100° East 485 558 35,000  Level Memphis Center
15:30 36.0250 -89.0994 98° East 495 570 35,000 -600 Level Memphis Center
15:31 36.0044 -88.9278 98° East 505 581 33,900 -1,320 Descending Memphis Center
15:32 35.9814 -88.7614 100° East 500 575 32,400 -1,620 Descending Memphis Center
15:33 35.9606 -88.6003 99° East 489 563 30,700 -2,280 Descending Memphis Center
15:34 35.9417 -88.4469 99° East 472 543 27,900 -2,700 Descending Memphis Center
15:35 35.9203 -88.2911 100° East 458 527 25,400 -2,400 Descending Memphis Center
15:36 35.8925 -88.1328 102° East 464 534 23,200 -2,220 Descending Memphis Center
15:37 35.8708 -87.9797 100° East 463 533 21,000 -2,100 Descending Memphis Center
15:38 35.8578 -87.8367 96° East 435 501 19,100 -1,020 Descending Memphis Center
15:39 35.8342 -87.7119 103° East 397 457 19,000 -240 Descending Memphis Center
15:40 35.7961 -87.5956 112° Southeast 368 423 18,700 -1,200 Descending Memphis Center
15:41 35.7581 -87.4792 112° Southeast 368 423 16,600 -2,160 Descending Memphis Center
15:42 35.7428 -87.3569 99° East 368 423 14,400 -1,800 Descending Memphis Center
15:43 35.7464 -87.2467 88° East 356 410 13,000 -1,500 Descending Memphis Center
15:44 35.7919 -87.1606 57° Northeast 315 362 11,400 -1,680 Descending Memphis Center
15:45 35.8503 -87.0789 49° Northeast 303 349 9,700 -1,800 Descending Memphis Center
15:46 35.9047 -87.0050 48° Northeast 298 343 7,900 -1,380 Descending Memphis Center
15:47 35.9589 -86.9308 48° Northeast 292 336 7,000 -480 Descending Memphis Center
15:48 36.0111 -86.8569 49° Northeast 287 330 7,000  Level Memphis Center
15:49 36.0692 -86.7747 49° Northeast 287 330 7,000 -600 Level Memphis Center
15:50 36.1436 -86.7536 13° North 261 300 5,900 -1,680 Descending Memphis Center
15:51 36.2164 -86.7428 North 261 300 3,700 -1,500 Descending Memphis Center
15:52 36.2867 -86.7267 10° North 255 293 3,000 -360 Descending Memphis Center
15:53 36.2908 -86.6517 86° East 176 203 3,000 -240 Level Memphis Center
15:54 36.2425 -86.6361 165° South 100 115 2,600 -660 Descending Memphis Center
15:55 36.1931 -86.6564 198° South 164 189 1,700 -900 Descending Memphis Center
15:58 36.1167 -86.6667 141° Southeast  Level FlightAware Approximate